メインページ
METAR-TAF:

METAR-TAF

空港 :

Chetwynd, ブリティッシュコロンビア州, カナダ

緯度: 55-42N, 経度: 121-38W, 海抜: 609m

現時点の気象観測

当レポートは34分前の20:00(UTC)に作成
北東の風 3kt
気温 -5°C
湿度 73%
気圧 1013 hPa
視程: 24.1km
高度2500ftの雲はほとんどない
高度4800ftの雲は散在している
高度6700ftの千切れ雲あり
高度18000ftの千切れ雲あり

METAR: CYCQ 152000Z 05003KT 15SM FEW025 SCT048 BKN067 BKN180 M05/M09 A2990 RMK ST1SC3AC3CS1 ST TR CS TR FROIN SLP164

時間: 13:34 (20:34 UTC)


TAF: 見つかりません

4,000以上の空港の気象観測と天気予報(METAR報とTAF報)

利用可能な観測所は地図上に黄色い丸と赤い丸で示す。

丸の上にカーソルを重ねると観測所名を参照できる。

次にクリックすると気象観測と天気予報を参照できる。

マップの切り替え:黒色「×」印の緑ボタンをクリックして拡大、「-」印の緑ボタンをクリックして縮小、緑色の三角印をクリックして隣りの地図に切り替え


METAR-TAF: